createdAt,value
2019-01-02T00:02:01.363Z,-0.88
2019-01-02T00:04:49.854Z,-0.86
2019-01-02T00:10:14.526Z,-0.92
2019-01-02T00:12:44.148Z,-0.92
2019-01-02T00:15:15.702Z,-0.92
2019-01-02T00:17:45.380Z,-0.90
2019-01-02T00:20:15.791Z,-0.86
2019-01-02T00:22:45.682Z,-0.85
2019-01-02T00:25:15.378Z,-0.83
2019-01-02T00:30:33.838Z,-0.76
2019-01-02T00:35:54.430Z,-0.72
2019-01-02T00:38:24.070Z,-0.68
2019-01-02T00:40:55.495Z,-0.64
2019-01-02T00:46:00.548Z,-0.56
2019-01-02T00:48:30.239Z,-0.50
2019-01-02T00:51:01.692Z,-0.47
2019-01-02T00:53:31.317Z,-0.42
2019-01-02T00:56:03.056Z,-0.39
2019-01-02T00:58:32.689Z,-0.35
2019-01-02T01:01:04.332Z,-0.29
2019-01-02T01:03:34.005Z,-0.23
2019-01-02T01:06:05.588Z,-0.19
2019-01-02T01:08:35.227Z,-0.16
2019-01-02T01:11:06.853Z,-0.16
2019-01-02T01:13:36.467Z,-0.14
2019-01-02T01:16:07.997Z,-0.12
2019-01-02T01:18:37.710Z,-0.07
2019-01-02T01:21:07.347Z,-0.03
2019-01-02T01:26:25.885Z,0.07
2019-01-02T01:31:44.352Z,0.11
2019-01-02T01:34:13.978Z,0.12
2019-01-02T01:36:43.613Z,0.16
2019-01-02T01:39:15.226Z,0.22
2019-01-02T01:41:44.849Z,0.12
2019-01-02T01:44:14.484Z,0.14
2019-01-02T01:46:44.257Z,0.21
2019-01-02T01:49:13.903Z,0.27
2019-01-02T01:51:45.359Z,0.30
2019-01-02T01:54:15.031Z,0.34
2019-01-02T01:56:44.660Z,0.36
2019-01-02T02:01:56.869Z,0.41
2019-01-02T02:04:26.524Z,0.39
2019-01-02T02:06:57.929Z,0.40
2019-01-02T02:09:27.588Z,0.40
2019-01-02T02:11:57.245Z,0.36
2019-01-02T02:17:15.578Z,0.34
2019-01-02T02:19:45.197Z,0.36
2019-01-02T02:22:16.625Z,0.35
2019-01-02T02:24:46.290Z,0.33
2019-01-02T02:27:17.905Z,0.31
2019-01-02T02:30:07.483Z,0.30
2019-01-02T02:32:37.383Z,0.29
2019-01-02T02:35:07.655Z,0.29
2019-01-02T02:37:37.302Z,0.26
2019-01-02T02:40:08.009Z,0.27
2019-01-02T02:42:37.617Z,0.27
2019-01-02T02:45:29.530Z,0.25
2019-01-02T02:47:59.439Z,0.23
2019-01-02T02:55:55.019Z,0.25
2019-01-02T02:58:45.214Z,0.26
2019-01-02T03:04:03.909Z,0.27
2019-01-02T03:06:55.421Z,0.27
2019-01-02T03:09:26.027Z,0.28
2019-01-02T03:11:55.634Z,0.28
2019-01-02T03:14:25.256Z,0.29
2019-01-02T03:16:56.762Z,0.29
2019-01-02T03:19:28.153Z,0.27
2019-01-02T03:22:00.039Z,0.27
2019-01-02T03:24:30.010Z,0.27
2019-01-02T03:26:59.806Z,0.25
2019-01-02T03:29:29.686Z,0.24
2019-01-02T03:32:01.841Z,0.24
2019-01-02T03:34:31.870Z,0.25
2019-01-02T03:37:01.478Z,0.23
2019-01-02T03:39:31.162Z,0.23
2019-01-02T03:42:03.387Z,0.24
2019-01-02T03:44:33.017Z,0.22
2019-01-02T03:47:02.673Z,0.20
2019-01-02T03:49:32.575Z,0.17
2019-01-02T03:52:02.177Z,0.14
2019-01-02T03:54:31.860Z,0.09
2019-01-02T03:57:01.570Z,0.04
2019-01-02T03:59:31.198Z,-0.02
2019-01-02T04:02:00.889Z,-0.05
2019-01-02T04:04:30.739Z,-0.06
2019-01-02T04:07:00.504Z,-0.06
2019-01-02T04:09:30.174Z,-0.08
2019-01-02T04:11:59.955Z,-0.07
2019-01-02T04:14:29.599Z,-0.10
2019-01-02T04:16:59.257Z,-0.12
2019-01-02T04:19:29.200Z,-0.12
2019-01-02T04:21:58.810Z,-0.15
2019-01-02T04:24:28.478Z,-0.17
2019-01-02T04:26:58.189Z,-0.19
2019-01-02T04:29:27.834Z,-0.22
2019-01-02T04:31:57.525Z,-0.21
2019-01-02T04:34:27.470Z,-0.20
2019-01-02T04:36:57.097Z,-0.21
2019-01-02T04:39:26.785Z,-0.23
2019-01-02T04:41:56.986Z,-0.84
2019-01-02T04:47:15.372Z,-0.25
2019-01-02T04:49:44.997Z,-0.25
2019-01-02T04:52:14.615Z,-0.28
2019-01-02T04:55:03.259Z,-0.30
2019-01-02T04:57:32.882Z,-0.29
2019-01-02T05:00:02.518Z,-0.27
2019-01-02T05:02:32.453Z,-0.27
2019-01-02T05:05:02.081Z,-0.30
2019-01-02T05:07:31.802Z,-0.44
2019-01-02T05:10:01.790Z,-0.53
2019-01-02T05:12:31.398Z,-0.54
2019-01-02T05:15:01.038Z,-0.52
2019-01-02T05:17:30.885Z,-0.49
2019-01-02T05:20:00.515Z,-0.45
2019-01-02T05:22:30.227Z,-0.43
2019-01-02T05:25:00.017Z,-0.42
2019-01-02T05:27:29.651Z,-0.42
2019-01-02T05:29:59.307Z,-0.42
2019-01-02T05:32:29.053Z,-0.45
2019-01-02T05:34:58.862Z,-0.47
2019-01-02T05:37:28.668Z,-0.46
2019-01-02T05:39:58.598Z,-0.48
2019-01-02T05:42:28.231Z,-0.48
2019-01-02T05:44:57.862Z,-0.50
2019-01-02T05:47:27.727Z,-0.50
2019-01-02T05:49:57.355Z,-0.49
2019-01-02T05:52:26.999Z,-0.51
2019-01-02T05:54:56.854Z,-0.51
2019-01-02T05:57:26.483Z,-0.53
2019-01-02T05:59:56.103Z,-0.52
2019-01-02T06:02:25.989Z,-0.55
2019-01-02T06:04:55.612Z,-0.56
2019-01-02T06:07:25.574Z,-0.58
2019-01-02T06:09:55.324Z,-0.60
2019-01-02T06:12:25.039Z,-0.61
2019-01-02T06:14:54.677Z,-0.60
2019-01-02T06:17:24.614Z,-0.63
2019-01-02T06:19:54.262Z,-0.67
2019-01-02T06:22:23.939Z,-0.72
2019-01-02T06:24:54.296Z,-0.76
2019-01-02T06:27:23.975Z,-0.80
2019-01-02T06:29:53.621Z,-0.80
2019-01-02T06:32:23.451Z,-0.80
2019-01-02T06:34:53.077Z,-0.81
2019-01-02T06:37:23.265Z,-0.81
2019-01-02T06:39:53.375Z,-0.82
2019-01-02T06:42:23.102Z,-0.84
2019-01-02T06:44:52.761Z,-0.86
2019-01-02T06:47:22.706Z,-0.84
2019-01-02T06:49:52.352Z,-0.83
2019-01-02T06:52:21.986Z,-0.82
2019-01-02T07:00:01.874Z,-0.84
2019-01-02T07:02:31.502Z,-0.84
2019-01-02T07:05:20.165Z,-0.83
2019-01-02T07:07:49.834Z,-0.83
2019-01-02T07:10:38.579Z,-0.82
2019-01-02T07:13:27.145Z,-0.82
2019-01-02T07:15:56.908Z,-0.82
2019-01-02T07:18:26.543Z,-0.80
2019-01-02T07:20:56.162Z,-0.82
2019-01-02T07:23:26.227Z,-0.81
2019-01-02T07:25:55.890Z,-0.79
2019-01-02T07:28:25.565Z,-0.78
2019-01-02T07:30:55.448Z,-0.76
2019-01-02T07:33:30.920Z,-0.77
2019-01-02T07:36:28.051Z,-0.76
2019-01-02T07:39:37.791Z,-0.75
2019-01-02T07:42:45.451Z,-0.73
2019-01-02T07:45:29.189Z,-0.73
2019-01-02T07:48:26.678Z,-0.73
2019-01-02T07:51:34.197Z,-0.73
2019-01-02T07:54:41.910Z,-0.72
2019-01-02T07:57:49.364Z,-0.71
2019-01-02T08:00:30.362Z,-0.68
2019-01-02T08:03:37.829Z,-0.67
2019-01-02T08:06:46.200Z,-0.68
2019-01-02T08:09:37.424Z,-0.68
2019-01-02T08:12:45.169Z,-0.69
2019-01-02T08:15:53.539Z,-0.73
2019-01-02T08:19:01.250Z,-0.77
2019-01-02T08:22:08.712Z,-0.78
2019-01-02T08:25:04.935Z,-0.78
2019-01-02T08:28:12.391Z,-0.78
2019-01-02T08:31:20.107Z,-0.78
2019-01-02T08:34:27.595Z,-0.78
2019-01-02T08:37:35.286Z,-0.77
2019-01-02T08:40:42.741Z,-0.77
2019-01-02T08:43:50.477Z,-0.77
2019-01-02T08:46:57.937Z,-0.76
2019-01-02T08:50:05.621Z,-0.74
2019-01-02T08:53:13.083Z,-0.73
2019-01-02T08:56:20.668Z,-0.72
2019-01-02T09:02:43.834Z,-0.67
2019-01-02T09:05:51.664Z,-0.65
2019-01-02T09:08:54.924Z,-0.64
2019-01-02T09:12:02.218Z,-0.61
2019-01-02T09:14:43.818Z,-0.61
2019-01-02T09:17:24.638Z,-0.59
2019-01-02T09:20:32.290Z,-0.58
2019-01-02T09:23:39.789Z,-0.57
2019-01-02T09:29:48.554Z,-0.58
2019-01-02T09:32:56.084Z,-0.54
2019-01-02T09:35:50.989Z,-0.54
2019-01-02T09:38:32.730Z,-0.54
2019-01-02T09:41:40.555Z,-0.54
2019-01-02T09:44:48.119Z,-0.54
2019-01-02T09:47:45.347Z,-0.55
2019-01-02T09:50:48.171Z,-0.53
2019-01-02T09:53:36.670Z,-0.57
2019-01-02T09:56:44.366Z,-0.61
2019-01-02T09:59:26.109Z,-0.64
2019-01-02T10:02:33.919Z,-0.67
2019-01-02T10:05:49.724Z,-0.68
2019-01-02T10:08:57.238Z,-0.70
2019-01-02T10:12:04.903Z,-0.72
2019-01-02T10:15:12.896Z,-0.67
2019-01-02T10:18:20.736Z,-0.56
2019-01-02T10:21:02.261Z,-0.42
2019-01-02T10:23:58.537Z,-0.32
2019-01-02T10:27:06.115Z,-0.28
2019-01-02T10:30:13.743Z,-0.28
2019-01-02T10:33:21.236Z,-0.28
2019-01-02T10:36:29.091Z,-0.27
2019-01-02T10:39:36.570Z,-0.24
2019-01-02T10:42:44.119Z,-0.23
2019-01-02T10:45:35.446Z,-0.22
2019-01-02T10:48:16.248Z,-0.21
2019-01-02T10:51:23.754Z,-0.23
2019-01-02T10:54:05.634Z,-0.26
2019-01-02T10:56:46.835Z,-0.29
2019-01-02T10:59:54.753Z,-0.31
2019-01-02T11:03:02.255Z,-0.32
2019-01-02T11:06:09.890Z,-0.31
2019-01-02T11:09:17.432Z,-0.31
2019-01-02T11:12:24.991Z,-0.30
2019-01-02T11:15:32.588Z,-0.28
2019-01-02T11:18:25.806Z,-0.27
2019-01-02T11:21:33.543Z,-0.29
2019-01-02T11:24:41.097Z,-0.31
2019-01-02T11:27:48.981Z,-0.36
2019-01-02T11:30:41.832Z,-0.41
2019-01-02T11:33:22.790Z,-0.42
2019-01-02T11:36:30.232Z,-0.43
2019-01-02T11:39:37.711Z,-0.42
2019-01-02T11:42:25.483Z,-0.42
2019-01-02T11:45:22.255Z,-0.46
2019-01-02T11:48:03.448Z,-0.52
2019-01-02T11:50:33.177Z,-0.56
2019-01-02T11:53:21.880Z,-0.64
2019-01-02T11:55:51.546Z,-0.69
2019-01-02T11:58:21.201Z,-0.71
2019-01-02T12:00:51.040Z,-0.69
2019-01-02T12:03:20.697Z,-0.66
2019-01-02T12:05:50.323Z,-0.60
2019-01-02T12:08:20.334Z,-0.50
2019-01-02T12:13:25.741Z,-0.15
2019-01-02T12:15:55.424Z,0.02
2019-01-02T12:18:25.169Z,0.18
2019-01-02T12:20:54.999Z,0.38
2019-01-02T12:23:24.677Z,0.54
2019-01-02T12:25:54.294Z,0.67
2019-01-02T12:28:24.002Z,0.41
2019-01-02T12:31:12.609Z,0.82
2019-01-02T12:33:42.347Z,0.88
2019-01-02T12:36:11.957Z,0.92
2019-01-02T12:38:41.637Z,0.90
2019-01-02T12:41:11.431Z,0.89
2019-01-02T12:43:41.158Z,0.90
2019-01-02T12:46:10.854Z,0.94
2019-01-02T12:48:59.488Z,0.97
2019-01-02T12:51:47.962Z,0.87
2019-01-02T12:54:17.693Z,0.73
2019-01-02T12:56:47.314Z,0.64
2019-01-02T12:59:57.502Z,0.64
2019-01-02T13:03:04.958Z,0.63
2019-01-02T13:05:46.342Z,0.48
2019-01-02T13:08:53.815Z,0.29
2019-01-02T13:11:47.099Z,0.19
2019-01-02T13:14:54.566Z,0.09
2019-01-02T13:18:02.158Z,-0.04
2019-01-02T13:20:57.814Z,-0.17
2019-01-02T13:23:32.922Z,-0.24
2019-01-02T13:26:10.933Z,-0.31
2019-01-02T13:29:19.212Z,-0.38
2019-01-02T13:32:26.664Z,-0.42
2019-01-02T13:35:19.805Z,-0.45
2019-01-02T13:38:27.307Z,-0.50
2019-01-02T13:41:34.925Z,-0.55
2019-01-02T13:44:27.673Z,-0.62
2019-01-02T13:47:35.370Z,-0.66
2019-01-02T13:50:36.010Z,-0.67
2019-01-02T13:53:08.541Z,-0.70
2019-01-02T13:55:38.200Z,-0.75
2019-01-02T13:58:07.835Z,-0.79
2019-01-02T14:00:37.767Z,-0.83
2019-01-02T14:03:07.415Z,-0.85
2019-01-02T14:05:40.464Z,-0.87
2019-01-02T14:08:10.154Z,-0.91
2019-01-02T14:10:39.779Z,-0.95
2019-01-02T14:16:27.323Z,-1.01
2019-01-02T14:18:56.526Z,-1.10
2019-01-02T14:21:37.844Z,-1.13
2019-01-02T14:24:07.041Z,-1.16
2019-01-02T14:26:36.246Z,-1.19
2019-01-02T14:29:05.594Z,-1.25
2019-01-02T14:31:38.691Z,-1.26
2019-01-02T14:34:05.723Z,-1.29
2019-01-02T14:36:35.067Z,-1.32
2019-01-02T14:42:13.280Z,-1.38
2019-01-02T14:44:42.715Z,-1.40
2019-01-02T14:47:11.910Z,-1.41
2019-01-02T14:49:41.363Z,-1.39
2019-01-02T14:52:10.563Z,-1.37
2019-01-02T14:54:39.748Z,-1.36
2019-01-02T14:57:09.102Z,-1.34
2019-01-02T14:59:38.364Z,-1.36
2019-01-02T15:02:07.625Z,-1.41
2019-01-02T15:07:11.656Z,-1.54
2019-01-02T15:09:40.871Z,-1.62
2019-01-02T15:12:10.093Z,-1.69
2019-01-02T15:14:39.371Z,-1.75
2019-01-02T15:17:08.780Z,-1.81
2019-01-02T15:19:37.963Z,-1.86
2019-01-02T15:22:27.272Z,-1.91
2019-01-02T15:24:56.549Z,-1.95
2019-01-02T15:30:14.479Z,-2.04
2019-01-02T15:32:43.672Z,-2.09
2019-01-02T15:35:12.947Z,-2.13
2019-01-02T15:37:42.250Z,-2.16
2019-01-02T15:40:12.089Z,-2.21
2019-01-02T15:42:41.279Z,-2.23
2019-01-02T15:45:10.936Z,-2.25
2019-01-02T15:47:40.398Z,-2.31
2019-01-02T15:50:11.070Z,-2.34
2019-01-02T15:52:40.560Z,-2.37
2019-01-02T15:55:09.972Z,-2.39
2019-01-02T16:00:27.706Z,-2.48
2019-01-02T16:02:57.006Z,-2.50
2019-01-02T16:05:26.266Z,-2.53
2019-01-02T16:07:55.706Z,-2.58
2019-01-02T16:10:24.919Z,-2.60
2019-01-02T16:12:54.138Z,-2.63
2019-01-02T16:15:23.617Z,-2.65
2019-01-02T16:17:52.816Z,-2.67
2019-01-02T16:20:22.007Z,-2.68
2019-01-02T16:23:10.400Z,-2.70
2019-01-02T16:25:39.823Z,-2.70
2019-01-02T16:28:09.042Z,-2.74
2019-01-02T16:30:38.563Z,-2.75
2019-01-02T16:33:07.756Z,-2.77
2019-01-02T16:35:36.967Z,-2.79
2019-01-02T16:38:06.328Z,-2.77
2019-01-02T16:40:35.563Z,-2.70
2019-01-02T16:43:04.791Z,-2.65
2019-01-02T16:45:34.239Z,-2.58
2019-01-02T16:48:03.538Z,-2.52
2019-01-02T16:50:32.796Z,-2.47
2019-01-02T16:53:02.262Z,-2.45
2019-01-02T16:55:31.572Z,-2.43
2019-01-02T16:58:00.864Z,-2.44
2019-01-02T17:00:30.265Z,-2.46
2019-01-02T17:03:00.967Z,-2.47
2019-01-02T17:05:30.173Z,-2.49
2019-01-02T17:07:59.491Z,-2.51
2019-01-02T17:10:28.690Z,-2.53
2019-01-02T17:12:57.959Z,-2.54
2019-01-02T17:15:27.548Z,-2.53
2019-01-02T17:17:56.694Z,-2.53
2019-01-02T17:20:25.905Z,-2.51
2019-01-02T17:22:55.395Z,-2.48
2019-01-02T17:25:24.587Z,-2.47
2019-01-02T17:28:13.136Z,-2.45
2019-01-02T17:30:42.323Z,-2.43
2019-01-02T17:33:11.695Z,-2.45
2019-01-02T17:35:41.244Z,-2.45
2019-01-02T17:38:10.442Z,-2.45
2019-01-02T17:40:39.640Z,-2.44
2019-01-02T17:43:09.158Z,-2.45
2019-01-02T17:45:38.719Z,-2.43
2019-01-02T17:48:07.918Z,-2.42
2019-01-02T17:50:37.353Z,-2.41
2019-01-02T17:53:06.536Z,-2.41
2019-01-02T17:55:35.738Z,-2.38
2019-01-02T17:58:05.559Z,-2.38
2019-01-02T18:00:34.761Z,-2.37
2019-01-02T18:03:03.946Z,-2.36
2019-01-02T18:05:33.456Z,-2.32
2019-01-02T18:08:02.651Z,-2.32
2019-01-02T18:10:31.868Z,-2.29
2019-01-02T18:13:01.272Z,-2.26
2019-01-02T18:15:30.493Z,-2.23
2019-01-02T18:17:59.762Z,-2.21
2019-01-02T18:20:29.572Z,-2.19
2019-01-02T18:25:47.117Z,-2.17
2019-01-02T18:28:16.412Z,-2.14
2019-01-02T18:30:45.610Z,-2.12
2019-01-02T18:33:15.015Z,-2.10
2019-01-02T18:35:44.223Z,-2.10
2019-01-02T18:38:13.435Z,-2.10
2019-01-02T18:40:42.768Z,-2.08
2019-01-02T18:43:11.981Z,-2.07
2019-01-02T18:45:41.255Z,-2.07
2019-01-02T18:48:10.811Z,-2.05
2019-01-02T18:50:40.045Z,-2.06
2019-01-02T18:53:09.231Z,-2.06
2019-01-02T18:55:38.812Z,-2.06
2019-01-02T18:58:08.026Z,-2.05
2019-01-02T19:00:37.212Z,-2.05
2019-01-02T19:03:06.711Z,-2.06
2019-01-02T19:05:35.912Z,-2.07
2019-01-02T19:08:24.342Z,-2.11
2019-01-02T19:10:53.539Z,-2.13
2019-01-02T19:13:22.737Z,-2.16
2019-01-02T19:18:27.402Z,-2.22
2019-01-02T19:20:56.626Z,-2.25
2019-01-02T19:23:25.849Z,-2.28
2019-01-02T19:25:55.296Z,-2.30
2019-01-02T19:28:24.599Z,-2.30
2019-01-02T19:30:53.909Z,-2.30
2019-01-02T19:36:11.454Z,-2.31
2019-01-02T19:38:40.637Z,-2.31
2019-01-02T19:41:09.829Z,-2.30
2019-01-02T19:43:39.445Z,-2.50
2019-01-02T19:46:08.756Z,-2.33
2019-01-02T19:48:37.960Z,-2.33
2019-01-02T19:51:07.656Z,-2.34
2019-01-02T19:53:36.864Z,-2.34
2019-01-02T19:56:06.139Z,-2.35
2019-01-02T19:58:35.504Z,-2.33
2019-01-02T20:01:04.751Z,-2.33
2019-01-02T20:03:34.016Z,-2.32
2019-01-02T20:06:03.651Z,-2.32
2019-01-02T20:08:51.976Z,-2.30
2019-01-02T20:11:21.333Z,-2.25
2019-01-02T20:13:50.528Z,-2.22
2019-01-02T20:16:19.753Z,-2.20
2019-01-02T20:18:49.196Z,-2.20
2019-01-02T20:21:18.438Z,-2.19
2019-01-02T20:24:06.839Z,-2.19
2019-01-02T20:26:36.060Z,-2.18
2019-01-02T20:29:05.237Z,-2.17
2019-01-02T20:31:34.839Z,-2.16
2019-01-02T20:34:04.032Z,-2.16
2019-01-02T20:36:33.251Z,-2.14
2019-01-02T20:39:02.649Z,-2.12
2019-01-02T20:41:50.768Z,-2.12
2019-01-02T20:44:20.081Z,-2.10
2019-01-02T20:49:37.726Z,-2.02
2019-01-02T20:52:25.862Z,-2.00
2019-01-02T20:54:55.475Z,-1.97
2019-01-02T20:57:24.711Z,-1.93
2019-01-02T20:59:53.915Z,-1.93
2019-01-02T21:02:23.270Z,-1.94
2019-01-02T21:04:52.470Z,-1.90
2019-01-02T21:07:21.698Z,-1.89
2019-01-02T21:09:51.483Z,-1.86
2019-01-02T21:12:20.668Z,-1.85
2019-01-02T21:14:49.859Z,-1.82
2019-01-02T21:17:19.185Z,-1.78
2019-01-02T21:19:48.398Z,-1.75
2019-01-02T21:22:17.621Z,-1.71
2019-01-02T21:24:46.983Z,-1.64
2019-01-02T21:30:11.199Z,-1.56
2019-01-02T21:32:40.516Z,-1.51
2019-01-02T21:35:09.699Z,-1.48
2019-01-02T21:37:39.066Z,-1.45
2019-01-02T21:40:09.118Z,-1.47
2019-01-02T21:42:38.349Z,-1.49
2019-01-02T21:45:07.687Z,-1.58
2019-01-02T21:47:37.000Z,-1.66
2019-01-02T21:50:25.581Z,-1.70
2019-01-02T21:52:56.976Z,-1.75
2019-01-02T21:55:26.292Z,-1.83
2019-01-02T21:57:55.524Z,-1.89
2019-01-02T22:00:43.857Z,-1.94
2019-01-02T22:03:13.194Z,-2.04
2019-01-02T22:08:30.790Z,-2.25
2019-01-02T22:11:00.007Z,-2.36
2019-01-02T22:13:29.210Z,-2.45
2019-01-02T22:15:58.672Z,-2.53
2019-01-02T22:18:27.914Z,-2.60
2019-01-02T22:20:57.192Z,-2.66
2019-01-02T22:23:26.799Z,-2.73
2019-01-02T22:25:55.981Z,-2.77
2019-01-02T22:28:25.179Z,-2.84
2019-01-02T22:30:54.679Z,-2.87
2019-01-02T22:33:23.972Z,-2.92
2019-01-02T22:35:53.183Z,-2.98
2019-01-02T22:38:22.506Z,-3.01
2019-01-02T22:40:51.682Z,-3.03
2019-01-02T22:43:20.882Z,-3.06
2019-01-02T22:45:50.376Z,-3.08
2019-01-02T22:48:19.836Z,-3.11
2019-01-02T22:50:49.040Z,-3.15
2019-01-02T22:53:18.482Z,-3.20
2019-01-02T22:55:47.795Z,-3.23
2019-01-02T22:58:16.996Z,-3.26
2019-01-02T23:01:25.675Z,-3.29
2019-01-02T23:04:13.779Z,-3.31
2019-01-02T23:07:02.309Z,-3.35
2019-01-02T23:09:50.444Z,-3.37
2019-01-02T23:12:38.692Z,-3.40
2019-01-02T23:15:26.926Z,-3.45
2019-01-02T23:18:15.263Z,-3.47
2019-01-02T23:21:03.364Z,-3.50
2019-01-02T23:23:51.694Z,-3.53
2019-01-02T23:26:39.809Z,-3.54
2019-01-02T23:29:28.160Z,-3.55
2019-01-02T23:32:17.313Z,-3.58
2019-01-02T23:35:23.372Z,-3.59
2019-01-02T23:38:30.471Z,-3.58
2019-01-02T23:41:18.722Z,-3.57
2019-01-02T23:44:06.851Z,-3.53
2019-01-02T23:46:55.211Z,-3.50
2019-01-02T23:49:43.339Z,-3.47
2019-01-02T23:55:19.979Z,-3.42
2019-01-02T23:58:08.179Z,-3.42
